Colorado Springs, CO (80907)

10:10 AM MST on March 03, 2015 (GMT -0700)
Southern Colorado Medical Marijuana | Change Station
CLOSE
Current Station
Personal Weather Station
Location: Colorado Springs, CO
Elevation: 6191 ft
Nearby Weather Stations

Elev 6191 ft 38.88 °N, 104.81 °W | Updated 7 minutes ago

Overcast
Overcast
27.5 °F
Feels Like 21 °F
N
6.3
Wind Variable Wind from West

Today
High -- | Low -- °F
--% Chance of Precip.
Yesterday
High -- | Low -- °F
Precip. -- in
6:29 AM 5:53 PM
Waxing Gibbous, 96% visible
Pressure 29.87 in
Visibility 10.0 miles
Clouds Overcast 700 ft
Windchill 21 °F
Dew Point 20 °F
Humidity 74%
Rainfall 0.00 in
Snow Depth Not available.
UV 1 out of 12
Pollen 3.00 out of 12
Air Quality Not available.
Flu Activity Not available.
METAR KAFF 031658Z 01023KT 10SM -SN OVC007 M05/M07 A2977 RMK AO2A PK WND 36028/35 SNE38SNB46 SLP114 PCPN VRY LGT P0000 T10471068

More Conditions Fewer Conditions

Pressure 29.87 in
Visibility 10.0 miles
Clouds Overcast 700 ft
Windchill 21 °F
Dew Point 20 °F
Humidity 74%
Rainfall 0.00 in
Snow Depth Not available.
UV 1 out of 12
Pollen 3.00 out of 12
Air Quality Not available.
Flu Activity Not available.
METAR KAFF 031658Z 01023KT 10SM -SN OVC007 M05/M07 A2977 RMK AO2A PK WND 36028/35 SNE38SNB46 SLP114 PCPN VRY LGT P0000 T10471068

More Conditions Fewer Conditions

10-Day Weather Forecast

Almanac

Astronomy

Mar. 03, 2015 Rise Set
Actual Time
Civil Twilight
Nautical Twilight
Astronomical Twilight
Moon
Length of Visible Light
Length of Day
Tomorrow will be .
, % of the Moon is Illuminated

Today's Extremes

State Highs State Lows

Community

WunderPhotos

Upload Photos

1,802,174 photos uploaded!

WunderBlogs® & News

Nearby

Air Quality

  Air Quality AQ Index Pollutant
Not available.

Snow Depth

Station Depth Elevation

Earthquake Activity

City Distance Mag. Time & Date
Minimum magnitude displayed is 2.5.

Coastal Water Temperatures

Place Temperature

Nearby Weather Stations